Sarah Cenac — WDH6633 — position and weather

sailwx.info

Track history (hours):
 
Tides and Currents Weather Stations Pressure Air Temp Water Temp Dewpoint Dewpoint Depression Visibility Wind Speed Wind Dir Waves Ship Positions

Sarah Cenac

Owner: Cenac Marine Services LLC, Houma, LA. More information available from US FCC via Universal Licensing System and Coast Guard Vessel Documentation Center.

Last reported at 2018-May-25 03:29 UTC. Time now 2018-May-25 03:30 UTC.
Position N 29°35' W 090°36'.

Length 17 m; draft 2 m.

Type: Tug. MMSI: 367640040.

Date/timePositionNaut miles runAvg speedWind from/ knotsBaromVisibWave heightAir tempDewpointWater temp
2018-May-25 03:29N 29°35' W 090°36'0 0.0
2018-May-25 02:59N 29°35' W 090°36'0 0.0
2018-May-25 02:29N 29°35' W 090°36'0 0.0
2018-May-25 01:59N 29°35' W 090°36'0 0.0
2018-May-25 01:29N 29°35' W 090°36'0 0.0
2018-May-25 00:58N 29°35' W 090°36'0 0.2
2018-May-25 00:30N 29°35' W 090°36'2 3.6
2018-May-25 00:00N 29°34' W 090°34'3 5.8
2018-May-24 23:30N 29°34' W 090°31'3 5.8
2018-May-24 23:00N 29°34' W 090°28'3 5.7
2018-May-24 22:26N 29°33' W 090°24'2 5.2
2018-May-24 22:00N 29°35' W 090°23'3 5.9
2018-May-24 21:30N 29°37' W 090°21'14 1.1
2018-May-24 09:00N 29°35' W 090°36'0 0.0
2018-May-24 07:42N 29°35' W 090°36'0 0.0
2018-May-24 07:30N 29°35' W 090°36'0 0.0
2018-May-24 06:54N 29°35' W 090°36'0 0.0
2018-May-24 06:30N 29°35' W 090°36'0 0.0
2018-May-24 06:00N 29°35' W 090°36'0 0.0
2018-May-24 05:30N 29°35' W 090°36'0 0.0
2018-May-24 05:00N 29°35' W 090°36'0 0.0
2018-May-24 04:30N 29°35' W 090°36'0 0.0
2018-May-24 03:54N 29°35' W 090°36'0 0.0
2018-May-24 03:24N 29°35' W 090°36'0 0.0
2018-May-24 03:00N 29°35' W 090°36'0 0.0
2018-May-24 02:30N 29°35' W 090°36'0 0.0
2018-May-24 02:00N 29°35' W 090°36'0 0.0
2018-May-24 01:30N 29°35' W 090°36'0 0.0
2018-May-24 01:00N 29°35' W 090°36'0 0.0
2018-May-24 00:30N 29°35' W 090°36'0 0.0
2018-May-24 00:00N 29°35' W 090°36'0 0.0
2018-May-23 23:30N 29°35' W 090°36'0 0.0
2018-May-23 22:58N 29°35' W 090°36'0 0.0
2018-May-23 22:29N 29°35' W 090°36'0 0.0
2018-May-23 21:57N 29°35' W 090°36'0 0.0
2018-May-23 21:22N 29°35' W 090°36'0 0.0
2018-May-23 21:00N 29°35' W 090°36'0 0.0
2018-May-23 20:30N 29°35' W 090°36'0 0.0
2018-May-23 19:52N 29°35' W 090°36'0 0.0
2018-May-23 19:30N 29°35' W 090°36'3 6.1
2018-May-23 19:00N 29°36' W 090°39'3 5.6
2018-May-23 18:30N 29°37' W 090°43'2 3.4
2018-May-23 18:00N 29°35' W 090°43'0 0.0
2018-May-23 17:30N 29°35' W 090°43'2 4.5
2018-May-23 17:00N 29°37' W 090°41'3 6.5
2018-May-23 16:30N 29°35' W 090°38'1 2.7
2018-May-23 16:00N 29°35' W 090°37'0 0.3
2018-May-23 15:30N 29°35' W 090°36'0 0.0
2018-May-23 14:56N 29°35' W 090°36'0 0.0
2018-May-23 14:30N 29°35' W 090°36'0 0.0
2018-May-23 13:57N 29°35' W 090°36'0 0.0
2018-May-23 13:30N 29°35' W 090°36'0 0.0
2018-May-23 12:59N 29°35' W 090°36'0 0.0
2018-May-23 12:30N 29°35' W 090°36'0 0.0
2018-May-23 11:59N 29°35' W 090°36'0 0.0
2018-May-23 11:30N 29°35' W 090°36'0 0.0
2018-May-23 11:00N 29°35' W 090°36'0 0.0
2018-May-23 10:30N 29°35' W 090°36'0 0.0
2018-May-23 10:00N 29°35' W 090°36'0 0.0
2018-May-23 09:26N 29°35' W 090°36'0 0.0
2018-May-23 08:59N 29°35' W 090°36'0 0.0
2018-May-23 08:28N 29°35' W 090°36'0 0.0
2018-May-23 08:00N 29°35' W 090°36'0 0.0
2018-May-23 07:30N 29°35' W 090°36'0 0.0
2018-May-23 06:51N 29°35' W 090°36'0 0.0
2018-May-23 06:24N 29°35' W 090°36'0 0.0
2018-May-23 06:00N 29°35' W 090°36'0 0.0
2018-May-23 05:30N 29°35' W 090°36'0 0.0
2018-May-23 05:00N 29°35' W 090°36'0 0.0
2018-May-23 04:30N 29°35' W 090°36'0 0.0
2018-May-23 03:58N 29°35' W 090°36'0 0.0
2018-May-23 03:29N 29°35' W 090°36'0 0.0
2018-May-23 02:55N 29°35' W 090°36'0 0.0
2018-May-23 02:30N 29°35' W 090°36'0 0.0
2018-May-23 02:00N 29°35' W 090°36'0 0.0
2018-May-23 01:23N 29°35' W 090°36'0 0.0
2018-May-23 00:59N 29°35' W 090°36'0 0.0
2018-May-23 00:30N 29°35' W 090°36'2 4.2
2018-May-22 23:55N 29°34' W 090°34'6 0.9
2018-May-22 17:18N 29°33' W 090°27'2 6.9
2018-May-22 16:59N 29°34' W 090°29'3 6.6
2018-May-22 16:30N 29°34' W 090°33'3 6.1
2018-May-22 16:00N 29°35' W 090°36'0 0.6
2018-May-22 15:30N 29°35' W 090°36'0 0.0
2018-May-22 15:00N 29°35' W 090°36'0 0.0
2018-May-22 14:30N 29°35' W 090°36'0 0.3
2018-May-22 14:00N 29°35' W 090°37'0 0.1
2018-May-22 13:30N 29°35' W 090°37'0 0.2
2018-May-22 13:00N 29°35' W 090°37'0 0.4
2018-May-22 12:30N 29°35' W 090°36'0 0.0
2018-May-22 11:57N 29°35' W 090°36'0 0.0
2018-May-22 10:50N 29°35' W 090°36'0 0.0
2018-May-22 10:26N 29°35' W 090°36'0 0.0
2018-May-22 09:57N 29°35' W 090°36'0 0.0
2018-May-22 09:30N 29°35' W 090°36'0 0.0
2018-May-22 08:56N 29°35' W 090°36'0 0.0
2018-May-22 08:30N 29°35' W 090°36'0 0.0
2018-May-22 07:59N 29°35' W 090°36'0 0.0
2018-May-22 07:29N 29°35' W 090°36'0 0.0
2018-May-22 06:54N 29°35' W 090°36'0 0.0
2018-May-22 06:07N 29°35' W 090°36'0 0.0
2018-May-22 04:50N 29°35' W 090°36'0 0.0
2018-May-22 04:19N 29°35' W 090°36'0 0.2
2018-May-22 04:00N 29°35' W 090°36'3 6.2
2018-May-22 03:30N 29°34' W 090°33'7 1.0
2018-May-21 20:43N 29°33' W 090°25'1 5.8
2018-May-21 20:28N 29°33' W 090°27'3 6.0
2018-May-21 20:00N 29°34' W 090°30'3 6.1
2018-May-21 19:30N 29°34' W 090°33'2 4.7
2018-May-21 19:00N 29°35' W 090°36'1 0.0
2018-May-20 05:39N 29°35' W 090°36'0 0.0
2018-May-20 05:28N 29°35' W 090°36'0 0.0
2018-May-20 05:00N 29°35' W 090°36'0 0.0
2018-May-20 00:45N 29°35' W 090°36'0 0.0
2018-May-20 00:30N 29°35' W 090°36'0 0.0
2018-May-19 23:56N 29°35' W 090°36'0 0.0
2018-May-19 23:16N 29°35' W 090°36'0 0.0
2018-May-19 22:18N 29°35' W 090°36'0 0.0
2018-May-19 21:56N 29°35' W 090°36'0 0.0
2018-May-19 21:30N 29°35' W 090°36'0 0.0
2018-May-19 21:00N 29°35' W 090°36'0 0.0
2018-May-19 20:28N 29°35' W 090°36'0 0.0
2018-May-19 19:41N 29°35' W 090°36'0 0.0
2018-May-19 18:27N 29°35' W 090°36'0 0.0
2018-May-19 17:55N 29°35' W 090°36'0 0.0
2018-May-19 16:48N 29°35' W 090°36'0 0.0
2018-May-19 16:23N 29°35' W 090°36'0 0.0
2018-May-19 15:55N 29°35' W 090°36'0 0.0
2018-May-19 15:19N 29°35' W 090°36'0 0.0
2018-May-19 13:28N 29°35' W 090°36'0 0.6
2018-May-19 13:00N 29°35' W 090°37'0 0.5
2018-May-19 12:30N 29°35' W 090°36'0 0.0
2018-May-19 00:22N 29°35' W 090°36'3 4.5
2018-May-18 23:44N 29°34' W 090°33'2 7.2
2018-May-18 23:27N 29°34' W 090°31'4 0.6
2018-May-18 16:48N 29°33' W 090°26'2 6.2
2018-May-18 16:30N 29°34' W 090°28'3 6.2
2018-May-18 16:00N 29°34' W 090°32'3 6.0
2018-May-18 15:30N 29°35' W 090°35'1 0.1
2018-May-18 00:56N 29°35' W 090°36'2 5.6
2018-May-18 00:30N 29°34' W 090°34'4 0.4
2018-May-17 14:26N 29°34' W 090°29'2 4.7
2018-May-17 14:00N 29°34' W 090°32'2 4.6
2018-May-17 13:29N 29°34' W 090°34'2 4.1
2018-May-17 13:00N 29°35' W 090°37'0 0.2
2018-May-17 12:30N 29°35' W 090°37'0 0.5
2018-May-17 11:47N 29°35' W 090°36'0 0.0
2018-May-17 11:29N 29°35' W 090°36'0 0.0
2018-May-17 10:34N 29°35' W 090°36'0 0.0
2018-May-17 10:24N 29°35' W 090°36'0 0.0
2018-May-17 10:00N 29°35' W 090°36'0 0.0
2018-May-17 09:29N 29°35' W 090°36'0 0.0
2018-May-17 09:00N 29°35' W 090°36'0 0.0
2018-May-17 08:29N 29°35' W 090°36'0 0.0
2018-May-17 08:00N 29°35' W 090°36'0 0.0
2018-May-17 07:28N 29°35' W 090°36'0 0.0
2018-May-17 06:58N 29°35' W 090°36'0 0.0
2018-May-17 06:30N 29°35' W 090°36'0 0.0
2018-May-17 06:00N 29°35' W 090°36'0 0.0
2018-May-17 05:30N 29°35' W 090°36'0 0.0
2018-May-17 05:00N 29°35' W 090°36'0 0.0
2018-May-17 04:30N 29°35' W 090°36'0 0.0
2018-May-17 04:00N 29°35' W 090°36'0 0.0
2018-May-17 03:29N 29°35' W 090°36'0 0.0
2018-May-17 02:54N 29°35' W 090°36'0 0.0
2018-May-17 01:35N 29°35' W 090°36'0 0.1
2018-May-17 01:29N 29°35' W 090°36'0 0.0
2018-May-17 00:44N 29°35' W 090°36'0 0.0
2018-May-17 00:17N 29°35' W 090°36'0 0.0
2018-May-16 23:58N 29°35' W 090°36'0 0.0
2018-May-16 23:26N 29°35' W 090°36'0 0.0
2018-May-16 23:00N 29°35' W 090°36'0 0.0
2018-May-16 22:29N 29°35' W 090°36'0 0.0
2018-May-16 21:52N 29°35' W 090°36'0 0.0
2018-May-16 21:29N 29°35' W 090°36'0 0.0
2018-May-16 21:00N 29°35' W 090°36'0 0.0
2018-May-16 20:19N 29°35' W 090°36'0 0.0
2018-May-16 19:57N 29°35' W 090°36'0 0.5
2018-May-16 19:30N 29°35' W 090°37'0 0.3
2018-May-16 18:54N 29°35' W 090°36'0 0.0
2018-May-16 18:24N 29°35' W 090°36'0 0.0
2018-May-16 17:53N 29°35' W 090°36'0 0.0
2018-May-16 17:29N 29°35' W 090°36'0 0.0
2018-May-16 17:00N 29°35' W 090°36'0 0.0
2018-May-16 16:30N 29°35' W 090°36'0 0.0
2018-May-16 15:58N 29°35' W 090°36'0 0.0
2018-May-16 15:19N 29°35' W 090°36'0 0.0
2018-May-16 13:33N 29°35' W 090°36'0 2.6
2018-May-16 13:29N 29°35' W 090°36'0 0.3
2018-May-16 12:58N 29°35' W 090°37'0 0.0
2018-May-16 12:29N 29°35' W 090°37'0 0.4
2018-May-16 12:00N 29°35' W 090°36'0 0.0
2018-May-16 00:32N 29°35' W 090°36'0 0.0
2018-May-16 00:24N 29°35' W 090°36'0 0.0
2018-May-15 23:37N 29°35' W 090°36'0 0.0
2018-May-15 23:24N 29°35' W 090°36'0 0.0
2018-May-15 22:51N 29°35' W 090°36'0 0.0
2018-May-15 22:30N 29°35' W 090°36'0 0.0
2018-May-15 22:00N 29°35' W 090°36'0 0.0
2018-May-15 21:29N 29°35' W 090°36'0 0.0
2018-May-15 20:50N 29°35' W 090°36'0 0.0
2018-May-15 20:23N 29°35' W 090°36'0 0.0
2018-May-15 19:48N 29°35' W 090°36'0 0.7
2018-May-15 19:29N 29°35' W 090°37'0 0.1
2018-May-15 18:46N 29°35' W 090°36'0 0.4
2018-May-15 18:24N 29°35' W 090°36'0 0.0
2018-May-15 17:48N 29°35' W 090°36'0 0.0
2018-May-15 17:22N 29°35' W 090°36'0 0.0
2018-May-15 16:46N 29°35' W 090°36'0 0.0
2018-May-15 16:25N 29°35' W 090°36'0 0.0
2018-May-15 16:00N 29°35' W 090°36'0 0.0
2018-May-15 15:30N 29°35' W 090°36'0 0.0
2018-May-15 14:59N 29°35' W 090°36'0 0.0
2018-May-15 14:28N 29°35' W 090°36'0 0.0
2018-May-15 13:43N 29°35' W 090°36'0 0.0
2018-May-15 13:30N 29°35' W 090°36'0 0.0
2018-May-15 12:56N 29°35' W 090°36'0 0.2
2018-May-15 12:30N 29°35' W 090°36'  
Track history (hours):
 
Tides and Currents Weather Stations Pressure Air Temp Water Temp Dewpoint Dewpoint Depression Visibility Wind Speed Wind Dir Waves Ship Positions

Sarah Cenac

Owner: Cenac Marine Services LLC, Houma, LA. More information available from US FCC via Universal Licensing System and Coast Guard Vessel Documentation Center.

Last reported at 2018-May-25 03:29 UTC. Time now 2018-May-25 03:30 UTC.
Position N 29°35' W 090°36'.

Length 17 m; draft 2 m.

Type: Tug. MMSI: 367640040.

Date/timePositionNaut miles runAvg speedWind from/ knotsBaromVisibWave heightAir tempDewpointWater temp
2018-May-25 03:29N 29°35' W 090°36'0 0.0
2018-May-25 02:59N 29°35' W 090°36'0 0.0
2018-May-25 02:29N 29°35' W 090°36'0 0.0
2018-May-25 01:59N 29°35' W 090°36'0 0.0
2018-May-25 01:29N 29°35' W 090°36'0 0.0
2018-May-25 00:58N 29°35' W 090°36'0 0.2
2018-May-25 00:30N 29°35' W 090°36'2 3.6
2018-May-25 00:00N 29°34' W 090°34'3 5.8
2018-May-24 23:30N 29°34' W 090°31'3 5.8
2018-May-24 23:00N 29°34' W 090°28'3 5.7
2018-May-24 22:26N 29°33' W 090°24'2 5.2
2018-May-24 22:00N 29°35' W 090°23'3 5.9
2018-May-24 21:30N 29°37' W 090°21'14 1.1
2018-May-24 09:00N 29°35' W 090°36'0 0.0
2018-May-24 07:42N 29°35' W 090°36'0 0.0
2018-May-24 07:30N 29°35' W 090°36'0 0.0
2018-May-24 06:54N 29°35' W 090°36'0 0.0
2018-May-24 06:30N 29°35' W 090°36'0 0.0
2018-May-24 06:00N 29°35' W 090°36'0 0.0
2018-May-24 05:30N 29°35' W 090°36'0 0.0
2018-May-24 05:00N 29°35' W 090°36'0 0.0
2018-May-24 04:30N 29°35' W 090°36'0 0.0
2018-May-24 03:54N 29°35' W 090°36'0 0.0
2018-May-24 03:24N 29°35' W 090°36'0 0.0
2018-May-24 03:00N 29°35' W 090°36'0 0.0
2018-May-24 02:30N 29°35' W 090°36'0 0.0
2018-May-24 02:00N 29°35' W 090°36'0 0.0
2018-May-24 01:30N 29°35' W 090°36'0 0.0
2018-May-24 01:00N 29°35' W 090°36'0 0.0
2018-May-24 00:30N 29°35' W 090°36'0 0.0
2018-May-24 00:00N 29°35' W 090°36'0 0.0
2018-May-23 23:30N 29°35' W 090°36'0 0.0
2018-May-23 22:58N 29°35' W 090°36'0 0.0
2018-May-23 22:29N 29°35' W 090°36'0 0.0
2018-May-23 21:57N 29°35' W 090°36'0 0.0
2018-May-23 21:22N 29°35' W 090°36'0 0.0
2018-May-23 21:00N 29°35' W 090°36'0 0.0
2018-May-23 20:30N 29°35' W 090°36'0 0.0
2018-May-23 19:52N 29°35' W 090°36'0 0.0
2018-May-23 19:30N 29°35' W 090°36'3 6.1
2018-May-23 19:00N 29°36' W 090°39'3 5.6
2018-May-23 18:30N 29°37' W 090°43'2 3.4
2018-May-23 18:00N 29°35' W 090°43'0 0.0
2018-May-23 17:30N 29°35' W 090°43'2 4.5
2018-May-23 17:00N 29°37' W 090°41'3 6.5
2018-May-23 16:30N 29°35' W 090°38'1 2.7
2018-May-23 16:00N 29°35' W 090°37'0 0.3
2018-May-23 15:30N 29°35' W 090°36'0 0.0
2018-May-23 14:56N 29°35' W 090°36'0 0.0
2018-May-23 14:30N 29°35' W 090°36'0 0.0
2018-May-23 13:57N 29°35' W 090°36'0 0.0
2018-May-23 13:30N 29°35' W 090°36'0 0.0
2018-May-23 12:59N 29°35' W 090°36'0 0.0
2018-May-23 12:30N 29°35' W 090°36'0 0.0
2018-May-23 11:59N 29°35' W 090°36'0 0.0
2018-May-23 11:30N 29°35' W 090°36'0 0.0
2018-May-23 11:00N 29°35' W 090°36'0 0.0
2018-May-23 10:30N 29°35' W 090°36'0 0.0
2018-May-23 10:00N 29°35' W 090°36'0 0.0
2018-May-23 09:26N 29°35' W 090°36'0 0.0
2018-May-23 08:59N 29°35' W 090°36'0 0.0
2018-May-23 08:28N 29°35' W 090°36'0 0.0
2018-May-23 08:00N 29°35' W 090°36'0 0.0
2018-May-23 07:30N 29°35' W 090°36'0 0.0
2018-May-23 06:51N 29°35' W 090°36'0 0.0
2018-May-23 06:24N 29°35' W 090°36'0 0.0
2018-May-23 06:00N 29°35' W 090°36'0 0.0
2018-May-23 05:30N 29°35' W 090°36'0 0.0
2018-May-23 05:00N 29°35' W 090°36'0 0.0
2018-May-23 04:30N 29°35' W 090°36'0 0.0
2018-May-23 03:58N 29°35' W 090°36'0 0.0
2018-May-23 03:29N 29°35' W 090°36'0 0.0
2018-May-23 02:55N 29°35' W 090°36'0 0.0
2018-May-23 02:30N 29°35' W 090°36'0 0.0
2018-May-23 02:00N 29°35' W 090°36'0 0.0
2018-May-23 01:23N 29°35' W 090°36'0 0.0
2018-May-23 00:59N 29°35' W 090°36'0 0.0
2018-May-23 00:30N 29°35' W 090°36'2 4.2
2018-May-22 23:55N 29°34' W 090°34'6 0.9
2018-May-22 17:18N 29°33' W 090°27'2 6.9
2018-May-22 16:59N 29°34' W 090°29'3 6.6
2018-May-22 16:30N 29°34' W 090°33'3 6.1
2018-May-22 16:00N 29°35' W 090°36'0 0.6
2018-May-22 15:30N 29°35' W 090°36'0 0.0
2018-May-22 15:00N 29°35' W 090°36'0 0.0
2018-May-22 14:30N 29°35' W 090°36'0 0.3
2018-May-22 14:00N 29°35' W 090°37'0 0.1
2018-May-22 13:30N 29°35' W 090°37'0 0.2
2018-May-22 13:00N 29°35' W 090°37'0 0.4
2018-May-22 12:30N 29°35' W 090°36'0 0.0
2018-May-22 11:57N 29°35' W 090°36'0 0.0
2018-May-22 10:50N 29°35' W 090°36'0 0.0
2018-May-22 10:26N 29°35' W 090°36'0 0.0
2018-May-22 09:57N 29°35' W 090°36'0 0.0
2018-May-22 09:30N 29°35' W 090°36'0 0.0
2018-May-22 08:56N 29°35' W 090°36'0 0.0
2018-May-22 08:30N 29°35' W 090°36'0 0.0
2018-May-22 07:59N 29°35' W 090°36'0 0.0
2018-May-22 07:29N 29°35' W 090°36'0 0.0
2018-May-22 06:54N 29°35' W 090°36'0 0.0
2018-May-22 06:07N 29°35' W 090°36'0 0.0
2018-May-22 04:50N 29°35' W 090°36'0 0.0
2018-May-22 04:19N 29°35' W 090°36'0 0.2
2018-May-22 04:00N 29°35' W 090°36'3 6.2
2018-May-22 03:30N 29°34' W 090°33'7 1.0
2018-May-21 20:43N 29°33' W 090°25'1 5.8
2018-May-21 20:28N 29°33' W 090°27'3 6.0
2018-May-21 20:00N 29°34' W 090°30'3 6.1
2018-May-21 19:30N 29°34' W 090°33'2 4.7
2018-May-21 19:00N 29°35' W 090°36'1 0.0
2018-May-20 05:39N 29°35' W 090°36'0 0.0
2018-May-20 05:28N 29°35' W 090°36'0 0.0
2018-May-20 05:00N 29°35' W 090°36'0 0.0
2018-May-20 00:45N 29°35' W 090°36'0 0.0
2018-May-20 00:30N 29°35' W 090°36'0 0.0
2018-May-19 23:56N 29°35' W 090°36'0 0.0
2018-May-19 23:16N 29°35' W 090°36'0 0.0
2018-May-19 22:18N 29°35' W 090°36'0 0.0
2018-May-19 21:56N 29°35' W 090°36'0 0.0
2018-May-19 21:30N 29°35' W 090°36'0 0.0
2018-May-19 21:00N 29°35' W 090°36'0 0.0
2018-May-19 20:28N 29°35' W 090°36'0 0.0
2018-May-19 19:41N 29°35' W 090°36'0 0.0
2018-May-19 18:27N 29°35' W 090°36'0 0.0
2018-May-19 17:55N 29°35' W 090°36'0 0.0
2018-May-19 16:48N 29°35' W 090°36'0 0.0
2018-May-19 16:23N 29°35' W 090°36'0 0.0
2018-May-19 15:55N 29°35' W 090°36'0 0.0
2018-May-19 15:19N 29°35' W 090°36'0 0.0
2018-May-19 13:28N 29°35' W 090°36'0 0.6
2018-May-19 13:00N 29°35' W 090°37'0 0.5
2018-May-19 12:30N 29°35' W 090°36'0 0.0
2018-May-19 00:22N 29°35' W 090°36'3 4.5
2018-May-18 23:44N 29°34' W 090°33'2 7.2
2018-May-18 23:27N 29°34' W 090°31'4 0.6
2018-May-18 16:48N 29°33' W 090°26'2 6.2
2018-May-18 16:30N 29°34' W 090°28'3 6.2
2018-May-18 16:00N 29°34' W 090°32'3 6.0
2018-May-18 15:30N 29°35' W 090°35'1 0.1
2018-May-18 00:56N 29°35' W 090°36'2 5.6
2018-May-18 00:30N 29°34' W 090°34'4 0.4
2018-May-17 14:26N 29°34' W 090°29'2 4.7
2018-May-17 14:00N 29°34' W 090°32'2 4.6
2018-May-17 13:29N 29°34' W 090°34'2 4.1
2018-May-17 13:00N 29°35' W 090°37'0 0.2
2018-May-17 12:30N 29°35' W 090°37'0 0.5
2018-May-17 11:47N 29°35' W 090°36'0 0.0
2018-May-17 11:29N 29°35' W 090°36'0 0.0
2018-May-17 10:34N 29°35' W 090°36'0 0.0
2018-May-17 10:24N 29°35' W 090°36'0 0.0
2018-May-17 10:00N 29°35' W 090°36'0 0.0
2018-May-17 09:29N 29°35' W 090°36'0 0.0
2018-May-17 09:00N 29°35' W 090°36'0 0.0
2018-May-17 08:29N 29°35' W 090°36'0 0.0
2018-May-17 08:00N 29°35' W 090°36'0 0.0
2018-May-17 07:28N 29°35' W 090°36'0 0.0
2018-May-17 06:58N 29°35' W 090°36'0 0.0
2018-May-17 06:30N 29°35' W 090°36'0 0.0
2018-May-17 06:00N 29°35' W 090°36'0 0.0
2018-May-17 05:30N 29°35' W 090°36'0 0.0
2018-May-17 05:00N 29°35' W 090°36'0 0.0
2018-May-17 04:30N 29°35' W 090°36'0 0.0
2018-May-17 04:00N 29°35' W 090°36'0 0.0
2018-May-17 03:29N 29°35' W 090°36'0 0.0
2018-May-17 02:54N 29°35' W 090°36'0 0.0
2018-May-17 01:35N 29°35' W 090°36'0 0.1
2018-May-17 01:29N 29°35' W 090°36'0 0.0
2018-May-17 00:44N 29°35' W 090°36'0 0.0
2018-May-17 00:17N 29°35' W 090°36'0 0.0
2018-May-16 23:58N 29°35' W 090°36'0 0.0
2018-May-16 23:26N 29°35' W 090°36'0 0.0
2018-May-16 23:00N 29°35' W 090°36'0 0.0
2018-May-16 22:29N 29°35' W 090°36'0 0.0
2018-May-16 21:52N 29°35' W 090°36'0 0.0
2018-May-16 21:29N 29°35' W 090°36'0 0.0
2018-May-16 21:00N 29°35' W 090°36'0 0.0
2018-May-16 20:19N 29°35' W 090°36'0 0.0
2018-May-16 19:57N 29°35' W 090°36'0 0.5
2018-May-16 19:30N 29°35' W 090°37'0 0.3
2018-May-16 18:54N 29°35' W 090°36'0 0.0
2018-May-16 18:24N 29°35' W 090°36'0 0.0
2018-May-16 17:53N 29°35' W 090°36'0 0.0
2018-May-16 17:29N 29°35' W 090°36'0 0.0
2018-May-16 17:00N 29°35' W 090°36'0 0.0
2018-May-16 16:30N 29°35' W 090°36'0 0.0
2018-May-16 15:58N 29°35' W 090°36'0 0.0
2018-May-16 15:19N 29°35' W 090°36'0 0.0
2018-May-16 13:33N 29°35' W 090°36'0 2.6
2018-May-16 13:29N 29°35' W 090°36'0 0.3
2018-May-16 12:58N 29°35' W 090°37'0 0.0
2018-May-16 12:29N 29°35' W 090°37'0 0.4
2018-May-16 12:00N 29°35' W 090°36'0 0.0
2018-May-16 00:32N 29°35' W 090°36'0 0.0
2018-May-16 00:24N 29°35' W 090°36'0 0.0
2018-May-15 23:37N 29°35' W 090°36'0 0.0
2018-May-15 23:24N 29°35' W 090°36'0 0.0
2018-May-15 22:51N 29°35' W 090°36'0 0.0
2018-May-15 22:30N 29°35' W 090°36'0 0.0
2018-May-15 22:00N 29°35' W 090°36'0 0.0
2018-May-15 21:29N 29°35' W 090°36'0 0.0
2018-May-15 20:50N 29°35' W 090°36'0 0.0
2018-May-15 20:23N 29°35' W 090°36'0 0.0
2018-May-15 19:48N 29°35' W 090°36'0 0.7
2018-May-15 19:29N 29°35' W 090°37'0 0.1
2018-May-15 18:46N 29°35' W 090°36'0 0.4
2018-May-15 18:24N 29°35' W 090°36'0 0.0
2018-May-15 17:48N 29°35' W 090°36'0 0.0
2018-May-15 17:22N 29°35' W 090°36'0 0.0
2018-May-15 16:46N 29°35' W 090°36'0 0.0
2018-May-15 16:25N 29°35' W 090°36'0 0.0
2018-May-15 16:00N 29°35' W 090°36'0 0.0
2018-May-15 15:30N 29°35' W 090°36'0 0.0
2018-May-15 14:59N 29°35' W 090°36'0 0.0
2018-May-15 14:28N 29°35' W 090°36'0 0.0
2018-May-15 13:43N 29°35' W 090°36'0 0.0
2018-May-15 13:30N 29°35' W 090°36'0 0.0
2018-May-15 12:56N 29°35' W 090°36'0 0.2
2018-May-15 12:30N 29°35' W 090°36'  

Dump ship's entire track history